createdAt,value
2019-02-28T00:01:28.045Z,16.37
2019-02-28T00:03:58.065Z,10.60
2019-02-28T00:06:24.633Z,16.40
2019-02-28T00:08:53.626Z,15.57
2019-02-28T00:11:21.258Z,12.87
2019-02-28T00:13:48.702Z,17.67
2019-02-28T00:16:16.064Z,21.97
2019-02-28T00:18:43.691Z,17.37
2019-02-28T00:21:11.078Z,17.50
2019-02-28T00:23:38.445Z,20.05
2019-02-28T00:26:05.803Z,17.00
2019-02-28T00:28:33.169Z,14.77
2019-02-28T00:31:00.506Z,18.63
2019-02-28T00:33:30.869Z,13.93
2019-02-28T00:35:57.165Z,17.43
2019-02-28T00:38:29.479Z,17.17
2019-02-28T00:40:53.839Z,15.53
2019-02-28T00:43:22.250Z,15.50
2019-02-28T00:45:50.349Z,18.12
2019-02-28T00:48:18.258Z,17.67
2019-02-28T00:50:46.969Z,15.13
2019-02-28T00:53:14.366Z,17.15
2019-02-28T00:55:41.698Z,14.13
2019-02-28T00:58:09.097Z,16.23
2019-02-28T01:00:38.049Z,18.70
2019-02-28T01:03:05.443Z,26.57
2019-02-28T01:05:32.851Z,18.67
2019-02-28T01:08:00.315Z,14.83
2019-02-28T01:10:27.973Z,19.50
2019-02-28T01:12:55.339Z,20.12
2019-02-28T01:15:22.670Z,18.50
2019-02-28T01:17:50.058Z,15.83
2019-02-28T01:20:17.410Z,21.00
2019-02-28T01:22:46.959Z,17.27
2019-02-28T01:25:14.353Z,18.75
2019-02-28T01:27:42.493Z,20.35
2019-02-28T01:30:10.035Z,22.95
2019-02-28T01:32:37.398Z,20.52
2019-02-28T01:35:06.803Z,17.77
2019-02-28T01:37:34.429Z,19.87
2019-02-28T01:40:04.340Z,20.50
2019-02-28T01:42:30.939Z,14.90
2019-02-28T01:44:58.307Z,21.15
2019-02-28T01:47:25.700Z,16.55
2019-02-28T01:49:53.154Z,18.52
2019-02-28T01:52:20.525Z,18.10
2019-02-28T01:54:47.903Z,20.97
2019-02-28T01:57:15.277Z,19.73
2019-02-28T01:59:42.627Z,19.25
2019-02-28T02:02:09.928Z,16.73
2019-02-28T02:04:37.287Z,18.90
2019-02-28T02:07:04.674Z,25.10
2019-02-28T02:09:32.149Z,19.75
2019-02-28T02:11:59.517Z,20.90
2019-02-28T02:14:26.870Z,18.02
2019-02-28T02:16:54.219Z,18.45
2019-02-28T02:19:21.606Z,16.45
2019-02-28T02:21:48.970Z,14.50
2019-02-28T02:24:16.221Z,15.40
2019-02-28T02:26:45.170Z,16.82
2019-02-28T02:29:12.949Z,17.23
2019-02-28T02:31:40.331Z,18.95
2019-02-28T02:34:07.950Z,17.00
2019-02-28T02:36:35.301Z,15.53
2019-02-28T02:39:04.889Z,12.82
2019-02-28T02:41:33.492Z,20.02
2019-02-28T02:44:01.778Z,17.23
2019-02-28T02:46:29.267Z,15.93
2019-02-28T02:48:56.604Z,14.93
2019-02-28T02:51:23.946Z,17.02
2019-02-28T02:53:51.420Z,19.60
2019-02-28T02:56:18.821Z,14.90
2019-02-28T02:58:46.292Z,17.75
2019-02-28T03:01:13.708Z,16.55
2019-02-28T03:03:44.358Z,22.05
2019-02-28T03:06:14.050Z,15.25
2019-02-28T03:08:39.722Z,14.95
2019-02-28T03:11:07.533Z,15.43
2019-02-28T03:13:41.852Z,14.38
2019-02-28T03:16:04.154Z,17.37
2019-02-28T03:18:31.512Z,13.68
2019-02-28T03:20:58.851Z,16.23
2019-02-28T03:23:26.227Z,14.58
2019-02-28T03:25:53.579Z,18.05
2019-02-28T03:28:20.962Z,14.85
2019-02-28T03:30:48.311Z,13.22
2019-02-28T03:33:27.405Z,15.68
2019-02-28T03:35:44.942Z,19.62
2019-02-28T03:38:12.743Z,18.48
2019-02-28T03:40:41.278Z,15.10
2019-02-28T03:43:08.925Z,15.55
2019-02-28T03:45:36.271Z,22.02
2019-02-28T03:48:03.625Z,16.73
2019-02-28T03:50:31.015Z,17.75
2019-02-28T03:52:58.388Z,15.75
2019-02-28T03:55:25.712Z,15.98
2019-02-28T03:57:53.073Z,12.65
2019-02-28T04:00:20.619Z,14.20
2019-02-28T04:02:47.955Z,13.40
2019-02-28T04:05:15.292Z,17.00
2019-02-28T04:07:42.714Z,14.98
2019-02-28T04:10:10.099Z,18.35
2019-02-28T04:12:45.103Z,14.20
2019-02-28T04:15:10.204Z,14.98
2019-02-28T04:17:37.482Z,16.42
2019-02-28T04:20:04.941Z,16.42
2019-02-28T04:22:32.295Z,17.02
2019-02-28T04:24:59.650Z,16.85
2019-02-28T04:27:26.911Z,17.48
2019-02-28T04:29:54.350Z,15.32
2019-02-28T04:32:26.680Z,18.70
2019-02-28T04:34:50.951Z,16.75
2019-02-28T04:37:18.231Z,19.57
2019-02-28T04:39:45.515Z,17.07
2019-02-28T04:42:12.847Z,20.75
2019-02-28T04:44:40.249Z,15.50
2019-02-28T04:47:07.708Z,23.20
2019-02-28T04:49:35.129Z,22.87
2019-02-28T04:52:02.465Z,17.85
2019-02-28T04:54:29.842Z,22.45
2019-02-28T04:56:57.210Z,22.52
2019-02-28T04:59:24.465Z,19.15
2019-02-28T05:01:51.834Z,23.27
2019-02-28T05:04:19.239Z,20.30
2019-02-28T05:06:46.883Z,20.82
2019-02-28T05:09:14.341Z,18.40
2019-02-28T05:11:42.631Z,22.00
2019-02-28T05:14:10.026Z,20.65
2019-02-28T05:16:37.393Z,24.23
2019-02-28T05:19:04.770Z,21.52
2019-02-28T05:21:32.165Z,20.85
2019-02-28T05:23:59.511Z,21.20
2019-02-28T05:26:27.047Z,20.25
2019-02-28T05:28:54.542Z,22.98
2019-02-28T05:31:24.201Z,21.42
2019-02-28T05:33:51.262Z,20.27
2019-02-28T05:36:18.678Z,24.50
2019-02-28T05:38:46.124Z,19.85
2019-02-28T05:41:15.276Z,17.80
2019-02-28T05:43:45.320Z,21.20
2019-02-28T05:46:12.733Z,19.65
2019-02-28T05:48:40.161Z,22.10
2019-02-28T05:51:07.555Z,22.95
2019-02-28T05:53:34.983Z,24.72
2019-02-28T05:56:02.374Z,21.85
2019-02-28T05:58:29.764Z,22.05
2019-02-28T06:00:57.126Z,21.80
2019-02-28T06:03:25.465Z,21.85
2019-02-28T06:05:52.967Z,22.75
2019-02-28T06:08:20.400Z,22.55
2019-02-28T06:10:47.735Z,21.30
2019-02-28T06:13:18.031Z,21.02
2019-02-28T06:15:45.711Z,22.93
2019-02-28T06:18:13.222Z,19.87
2019-02-28T06:20:40.711Z,29.92
2019-02-28T06:23:09.462Z,21.97
2019-02-28T06:25:37.337Z,25.97
2019-02-28T06:28:04.747Z,24.87
2019-02-28T06:30:32.154Z,25.95
2019-02-28T06:32:59.618Z,23.90
2019-02-28T06:35:27.135Z,24.75
2019-02-28T06:37:54.492Z,27.73
2019-02-28T06:40:21.864Z,21.23
2019-02-28T06:42:49.123Z,34.05
2019-02-28T06:45:16.556Z,23.45
2019-02-28T06:47:48.013Z,25.00
2019-02-28T06:50:13.866Z,25.75
2019-02-28T06:52:41.390Z,24.60
2019-02-28T06:55:12.588Z,25.43
2019-02-28T06:57:40.350Z,24.65
2019-02-28T07:00:10.401Z,24.65
2019-02-28T07:02:37.446Z,26.23
2019-02-28T07:05:05.162Z,25.52
2019-02-28T07:07:32.398Z,26.60
2019-02-28T07:09:59.661Z,30.82
2019-02-28T07:12:30.556Z,23.07
2019-02-28T07:14:57.976Z,21.40
2019-02-28T07:17:25.352Z,26.12
2019-02-28T07:19:52.738Z,21.80
2019-02-28T07:22:20.723Z,27.37
2019-02-28T07:24:48.169Z,25.65
2019-02-28T07:27:15.539Z,23.40
2019-02-28T07:29:43.552Z,24.90
2019-02-28T07:32:11.010Z,24.60
2019-02-28T07:34:38.519Z,19.37
2019-02-28T07:37:05.912Z,27.30
2019-02-28T07:39:33.248Z,25.20
2019-02-28T07:42:02.103Z,24.52
2019-02-28T07:44:29.888Z,21.42
2019-02-28T07:46:57.227Z,22.67
2019-02-28T07:49:27.431Z,26.60
2019-02-28T07:51:56.952Z,24.27
2019-02-28T07:54:24.032Z,24.80
2019-02-28T07:56:51.394Z,29.07
2019-02-28T07:59:19.240Z,26.75
2019-02-28T08:01:46.574Z,24.82
2019-02-28T08:04:18.042Z,27.10
2019-02-28T08:06:43.278Z,27.70
2019-02-28T08:09:27.214Z,27.37
2019-02-28T08:11:56.709Z,30.97
2019-02-28T08:14:24.231Z,32.38
2019-02-28T08:16:51.658Z,33.57
2019-02-28T08:19:19.017Z,28.60
2019-02-28T08:21:50.253Z,32.43
2019-02-28T08:24:15.704Z,26.93
2019-02-28T08:26:43.721Z,27.63
2019-02-28T08:29:11.742Z,27.67
2019-02-28T08:31:39.198Z,24.97
2019-02-28T08:34:06.614Z,26.23
2019-02-28T08:36:34.122Z,28.27
2019-02-28T08:39:01.500Z,28.33
2019-02-28T08:41:28.764Z,36.93
2019-02-28T08:43:56.127Z,31.93
2019-02-28T08:46:23.530Z,31.50
2019-02-28T08:48:50.878Z,30.73
2019-02-28T08:51:18.246Z,31.30
2019-02-28T08:53:50.791Z,31.83
2019-02-28T08:56:15.004Z,28.93
2019-02-28T08:58:42.753Z,30.90
2019-02-28T09:01:10.157Z,36.60
2019-02-28T09:03:37.516Z,32.87
2019-02-28T09:06:07.263Z,32.63
2019-02-28T09:08:34.102Z,31.93
2019-02-28T09:11:01.450Z,32.87
2019-02-28T09:13:28.808Z,28.97
2019-02-28T09:15:56.153Z,32.00
2019-02-28T09:18:23.541Z,38.57
2019-02-28T09:20:50.873Z,35.23
2019-02-28T09:23:18.342Z,34.83
2019-02-28T09:25:45.770Z,38.07
2019-02-28T09:28:13.856Z,35.43
2019-02-28T09:30:41.264Z,34.93
2019-02-28T09:33:08.585Z,40.20
2019-02-28T09:35:35.923Z,34.30
2019-02-28T09:38:08.059Z,37.23
2019-02-28T09:40:32.833Z,37.27
2019-02-28T09:43:00.359Z,36.33
2019-02-28T09:45:27.771Z,33.13
2019-02-28T09:47:55.177Z,37.03
2019-02-28T09:50:23.382Z,38.67
2019-02-28T09:52:50.881Z,39.07
2019-02-28T09:55:18.245Z,38.70
2019-02-28T09:57:45.656Z,35.20
2019-02-28T10:00:14.790Z,33.17
2019-02-28T10:02:43.779Z,36.43
2019-02-28T10:05:11.825Z,39.47
2019-02-28T10:07:39.299Z,37.77
2019-02-28T10:10:09.446Z,40.83
2019-02-28T10:12:39.423Z,45.03
2019-02-28T10:15:07.728Z,39.90
2019-02-28T10:17:35.033Z,46.50
2019-02-28T10:20:02.418Z,45.10
2019-02-28T10:22:29.667Z,43.67
2019-02-28T10:24:57.038Z,52.80
2019-02-28T10:27:26.899Z,42.07
2019-02-28T10:29:53.608Z,45.13
2019-02-28T10:32:20.958Z,46.20
2019-02-28T10:34:48.298Z,41.30
2019-02-28T10:37:15.660Z,45.17
2019-02-28T10:39:43.317Z,44.73
2019-02-28T10:42:11.126Z,49.13
2019-02-28T10:44:38.499Z,48.03
2019-02-28T10:47:05.926Z,47.20
2019-02-28T10:49:33.292Z,45.90
2019-02-28T10:52:00.647Z,44.57
2019-02-28T10:54:28.042Z,43.73
2019-02-28T10:56:55.442Z,45.77
2019-02-28T10:59:24.450Z,40.03
2019-02-28T11:01:52.093Z,40.57
2019-02-28T11:04:19.421Z,38.50
2019-02-28T11:06:46.940Z,40.40
2019-02-28T11:09:21.705Z,44.27
2019-02-28T11:11:48.259Z,48.20
2019-02-28T11:14:16.156Z,41.67
2019-02-28T11:16:43.560Z,37.90
2019-02-28T11:19:13.830Z,40.13
2019-02-28T11:21:40.318Z,49.90
2019-02-28T11:24:07.698Z,39.70
2019-02-28T11:26:35.094Z,41.93
2019-02-28T11:29:03.148Z,43.50
2019-02-28T11:31:31.318Z,42.80
2019-02-28T11:33:58.658Z,38.03
2019-02-28T11:36:26.114Z,48.57
2019-02-28T11:38:55.456Z,44.73
2019-02-28T11:41:22.737Z,41.53
2019-02-28T11:43:50.101Z,38.40
2019-02-28T11:46:17.446Z,38.73
2019-02-28T11:48:44.797Z,35.63
2019-02-28T11:51:14.643Z,42.87
2019-02-28T11:53:41.489Z,33.97
2019-02-28T11:56:08.822Z,31.87
2019-02-28T11:58:36.201Z,39.27
2019-02-28T12:01:03.602Z,35.63
2019-02-28T12:03:31.901Z,38.07
2019-02-28T12:06:00.188Z,37.83
2019-02-28T12:08:27.679Z,41.97
2019-02-28T12:10:55.030Z,37.07
2019-02-28T12:13:22.515Z,38.00
2019-02-28T12:15:49.957Z,35.60
2019-02-28T12:18:17.327Z,40.30
2019-02-28T12:20:44.606Z,42.97
2019-02-28T12:23:11.913Z,43.33
2019-02-28T12:25:42.732Z,43.20
2019-02-28T12:28:09.760Z,49.30
2019-02-28T12:30:37.093Z,46.93
2019-02-28T12:33:04.524Z,41.53
2019-02-28T12:35:37.481Z,44.50
2019-02-28T12:38:01.184Z,49.40
2019-02-28T12:40:28.863Z,49.83
2019-02-28T12:42:56.303Z,50.17
2019-02-28T12:45:26.257Z,50.77
2019-02-28T12:47:53.593Z,60.60
2019-02-28T12:50:20.990Z,66.40
2019-02-28T12:52:49.893Z,57.53
2019-02-28T12:55:17.455Z,66.17
2019-02-28T12:57:44.785Z,71.60
2019-02-28T13:00:14.761Z,68.90
2019-02-28T13:02:43.686Z,80.73
2019-02-28T13:05:14.814Z,81.23
2019-02-28T13:07:41.189Z,84.60
2019-02-28T13:10:09.545Z,78.63
2019-02-28T13:12:36.947Z,71.90
2019-02-28T13:15:05.541Z,69.67
2019-02-28T13:17:32.974Z,67.07
2019-02-28T13:20:00.630Z,62.50
2019-02-28T13:22:28.220Z,65.60
2019-02-28T13:24:55.568Z,62.67
2019-02-28T13:27:22.927Z,63.80
2019-02-28T13:29:50.301Z,71.23
2019-02-28T13:32:17.611Z,62.60
2019-02-28T13:34:45.010Z,54.93
2019-02-28T13:37:12.365Z,63.37
2019-02-28T13:39:39.741Z,61.93
2019-02-28T13:42:07.125Z,53.40
2019-02-28T13:44:36.597Z,56.10
2019-02-28T13:47:09.431Z,48.70
2019-02-28T13:49:33.045Z,50.80
2019-02-28T13:52:03.225Z,50.03
2019-02-28T13:54:32.526Z,51.87
2019-02-28T13:56:59.866Z,43.17
2019-02-28T13:59:28.454Z,42.13
2019-02-28T14:01:56.501Z,44.17
2019-02-28T14:04:27.033Z,45.03
2019-02-28T14:06:55.691Z,42.80
2019-02-28T14:09:23.083Z,49.30
2019-02-28T14:11:53.086Z,46.00
2019-02-28T14:14:22.204Z,48.10
2019-02-28T14:16:49.700Z,41.57
2019-02-28T14:19:20.288Z,47.53
2019-02-28T14:21:46.312Z,43.57
2019-02-28T14:24:13.660Z,42.17
2019-02-28T14:26:42.992Z,40.37
2019-02-28T14:29:11.625Z,41.00
2019-02-28T14:31:39.119Z,40.03
2019-02-28T14:34:06.492Z,45.40
2019-02-28T14:36:33.896Z,39.00
2019-02-28T14:39:01.306Z,39.47
2019-02-28T14:41:31.820Z,31.77
2019-02-28T14:43:58.424Z,32.63
2019-02-28T14:46:25.781Z,35.20
2019-02-28T14:48:53.136Z,33.13
2019-02-28T14:51:20.530Z,38.10
2019-02-28T14:53:49.121Z,30.90
2019-02-28T14:56:17.000Z,25.97
2019-02-28T14:58:44.448Z,28.53
2019-02-28T15:01:16.831Z,29.23
2019-02-28T15:03:41.077Z,24.27
2019-02-28T15:06:08.446Z,22.87
2019-02-28T15:08:35.778Z,21.40
2019-02-28T15:11:03.116Z,26.87
2019-02-28T15:13:33.414Z,21.97
2019-02-28T15:16:01.802Z,19.63
2019-02-28T15:18:29.177Z,18.50
2019-02-28T15:20:56.542Z,21.30
2019-02-28T15:23:23.930Z,17.90
2019-02-28T15:25:54.259Z,24.73
2019-02-28T15:28:20.586Z,23.57
2019-02-28T15:30:47.948Z,24.60
2019-02-28T15:33:15.294Z,23.67
2019-02-28T15:35:42.672Z,22.40
2019-02-28T15:38:10.417Z,21.47
2019-02-28T15:40:37.968Z,24.20
2019-02-28T15:43:05.393Z,23.23
2019-02-28T15:45:36.261Z,23.60
2019-02-28T15:48:02.228Z,22.13
2019-02-28T15:50:29.617Z,20.13
2019-02-28T15:52:57.474Z,24.17
2019-02-28T15:55:25.070Z,19.23
2019-02-28T15:57:52.428Z,16.47
2019-02-28T16:00:22.249Z,18.33
2019-02-28T16:02:50.607Z,16.77
2019-02-28T16:05:18.195Z,18.07
2019-02-28T16:07:45.644Z,16.33
2019-02-28T16:10:15.552Z,17.43
2019-02-28T16:12:42.900Z,19.97
2019-02-28T16:15:11.910Z,18.77
2019-02-28T16:17:39.724Z,14.20
2019-02-28T16:20:07.246Z,16.47
2019-02-28T16:22:34.647Z,16.43
2019-02-28T16:25:01.987Z,17.60
2019-02-28T16:27:29.594Z,15.07
2019-02-28T16:29:58.638Z,13.93
2019-02-28T16:32:26.016Z,18.13
2019-02-28T16:34:53.400Z,15.23
2019-02-28T16:37:20.710Z,18.50
2019-02-28T16:39:49.089Z,12.37
2019-02-28T16:42:17.577Z,14.10
2019-02-28T16:44:45.014Z,13.70
2019-02-28T16:47:12.370Z,15.87
2019-02-28T16:49:41.364Z,15.47
2019-02-28T16:52:08.934Z,14.97
2019-02-28T16:54:36.296Z,15.87
2019-02-28T16:57:03.652Z,16.87
2019-02-28T16:59:31.781Z,15.13
2019-02-28T17:01:59.779Z,16.27
2019-02-28T17:04:27.164Z,16.27
2019-02-28T17:06:55.562Z,12.77
2019-02-28T17:09:37.980Z,13.63
2019-02-28T17:12:15.357Z,17.00
2019-02-28T17:14:47.955Z,20.70
2019-02-28T17:17:16.786Z,15.93
2019-02-28T17:19:44.061Z,19.03
2019-02-28T17:22:11.588Z,13.67
2019-02-28T17:24:38.977Z,19.83
2019-02-28T17:27:43.893Z,19.10
2019-02-28T17:30:40.539Z,17.37
2019-02-28T17:33:08.990Z,13.40
2019-02-28T17:35:37.094Z,18.10
2019-02-28T17:38:04.588Z,18.20
2019-02-28T17:40:31.869Z,14.07
2019-02-28T17:42:59.306Z,15.07
2019-02-28T17:45:29.595Z,14.00
2019-02-28T17:48:52.508Z,17.60
2019-02-28T17:51:38.362Z,14.77
2019-02-28T17:54:54.272Z,15.17
2019-02-28T17:58:07.521Z,15.93
2019-02-28T18:01:04.709Z,14.53
2019-02-28T18:04:11.251Z,16.40
2019-02-28T18:07:23.684Z,18.43
2019-02-28T18:10:24.353Z,16.60
2019-02-28T18:13:16.241Z,13.43
2019-02-28T18:16:28.737Z,24.53
2019-02-28T18:19:32.785Z,23.63
2019-02-28T18:22:20.405Z,19.13
2019-02-28T18:25:08.282Z,18.50
2019-02-28T18:28:27.876Z,17.80
2019-02-28T18:31:14.880Z,18.10
2019-02-28T18:33:52.274Z,20.83
2019-02-28T18:36:21.593Z,19.60
2019-02-28T18:38:48.974Z,19.07
2019-02-28T18:41:16.378Z,18.67
2019-02-28T18:43:43.961Z,17.93
2019-02-28T18:46:11.379Z,18.83
2019-02-28T18:48:38.763Z,19.13
2019-02-28T18:51:06.117Z,20.57
2019-02-28T18:53:33.458Z,17.53
2019-02-28T18:56:00.864Z,18.07
2019-02-28T18:58:28.257Z,21.93
2019-02-28T19:00:55.688Z,21.37
2019-02-28T19:03:23.058Z,15.70
2019-02-28T19:05:50.445Z,14.37
2019-02-28T19:08:17.902Z,19.70
2019-02-28T19:10:45.321Z,13.77
2019-02-28T19:13:12.808Z,14.07
2019-02-28T19:15:40.245Z,19.00
2019-02-28T19:18:07.781Z,17.73
2019-02-28T19:20:35.096Z,16.80
2019-02-28T19:23:02.532Z,19.47
2019-02-28T19:25:29.916Z,19.33
2019-02-28T19:27:57.396Z,15.10
2019-02-28T19:30:27.320Z,14.53
2019-02-28T19:32:54.966Z,15.57
2019-02-28T19:35:22.428Z,19.47
2019-02-28T19:37:49.832Z,16.23
2019-02-28T19:40:17.239Z,21.70
2019-02-28T19:42:44.622Z,18.67
2019-02-28T19:45:12.656Z,18.73
2019-02-28T19:47:40.176Z,18.23
2019-02-28T19:50:08.772Z,17.47
2019-02-28T19:52:36.157Z,16.47
2019-02-28T19:55:03.746Z,23.77
2019-02-28T19:57:31.146Z,20.20
2019-02-28T19:59:58.563Z,17.57
2019-02-28T20:02:26.166Z,16.97
2019-02-28T20:04:53.841Z,19.17
2019-02-28T20:07:21.376Z,19.47
2019-02-28T20:09:48.862Z,16.07
2019-02-28T20:12:16.636Z,18.20
2019-02-28T20:14:44.044Z,20.50
2019-02-28T20:17:11.441Z,22.57
2019-02-28T20:19:38.897Z,16.50
2019-02-28T20:22:06.417Z,17.20
2019-02-28T20:24:33.928Z,21.27
2019-02-28T20:27:01.393Z,21.87
2019-02-28T20:29:28.777Z,18.00
2019-02-28T20:31:56.263Z,20.70
2019-02-28T20:34:23.719Z,18.10
2019-02-28T20:36:54.228Z,17.90
2019-02-28T20:39:21.849Z,17.67
2019-02-28T20:41:49.251Z,21.87
2019-02-28T20:44:16.644Z,14.67
2019-02-28T20:46:44.047Z,19.20
2019-02-28T20:49:11.379Z,13.23
2019-02-28T20:51:38.749Z,19.30
2019-02-28T20:54:06.131Z,17.60
2019-02-28T20:56:33.515Z,15.90
2019-02-28T20:59:00.957Z,13.80
2019-02-28T21:01:28.418Z,14.77
2019-02-28T21:03:56.708Z,11.73
2019-02-28T21:06:24.222Z,14.63
2019-02-28T21:08:51.870Z,17.93
2019-02-28T21:11:19.303Z,13.37
2019-02-28T21:13:46.721Z,15.57
2019-02-28T21:16:14.141Z,17.27
2019-02-28T21:18:41.520Z,16.10
2019-02-28T21:21:08.907Z,16.00
2019-02-28T21:23:36.266Z,17.73
2019-02-28T21:26:03.880Z,15.47
2019-02-28T21:28:31.255Z,14.53
2019-02-28T21:30:58.696Z,17.17
2019-02-28T21:33:26.146Z,15.77
2019-02-28T21:35:53.557Z,16.90
2019-02-28T21:38:20.934Z,22.27
2019-02-28T21:40:48.368Z,22.17
2019-02-28T21:43:15.792Z,20.40
2019-02-28T21:45:43.158Z,23.10
2019-02-28T21:48:10.523Z,27.23
2019-02-28T21:50:37.985Z,26.97
2019-02-28T21:53:05.295Z,21.17
2019-02-28T21:55:32.686Z,22.10
2019-02-28T21:58:00.123Z,23.93
2019-02-28T22:00:27.577Z,22.27
2019-02-28T22:02:54.904Z,18.77
2019-02-28T22:05:22.239Z,17.60
2019-02-28T22:07:49.667Z,23.00
2019-02-28T22:10:17.211Z,19.90
2019-02-28T22:12:44.706Z,21.37
2019-02-28T22:15:13.606Z,19.07
2019-02-28T22:17:40.974Z,18.93
2019-02-28T22:20:09.819Z,18.87
2019-02-28T22:22:37.233Z,15.67
2019-02-28T22:25:05.032Z,16.17
2019-02-28T22:27:32.410Z,17.80
2019-02-28T22:30:02.718Z,19.30
2019-02-28T22:32:35.718Z,17.60
2019-02-28T22:35:08.650Z,18.90
2019-02-28T22:37:35.995Z,18.70
2019-02-28T22:40:04.225Z,19.63
2019-02-28T22:42:31.892Z,11.03
2019-02-28T22:44:59.274Z,8.30
2019-02-28T22:47:26.774Z,9.03
2019-02-28T22:49:54.149Z,9.83
2019-02-28T22:52:21.505Z,11.63
2019-02-28T22:54:48.890Z,9.53
2019-02-28T22:57:16.254Z,11.83
2019-02-28T22:59:43.626Z,14.07
2019-02-28T23:02:11.030Z,19.83
2019-02-28T23:04:38.363Z,13.77
2019-02-28T23:07:05.730Z,12.90
2019-02-28T23:09:33.124Z,8.40
2019-02-28T23:12:00.592Z,9.20
2019-02-28T23:14:27.941Z,5.47
2019-02-28T23:16:55.300Z,7.33
2019-02-28T23:19:22.722Z,6.50
2019-02-28T23:21:50.072Z,8.67
2019-02-28T23:24:17.515Z,9.13
2019-02-28T23:27:21.120Z,11.13
2019-02-28T23:30:20.682Z,11.87
2019-02-28T23:33:01.279Z,12.90
2019-02-28T23:35:31.431Z,10.47
2019-02-28T23:37:58.827Z,13.13
2019-02-28T23:40:26.178Z,11.77
2019-02-28T23:42:53.571Z,12.77
2019-02-28T23:45:20.939Z,13.83
2019-02-28T23:47:48.397Z,13.00
2019-02-28T23:50:18.420Z,11.90
2019-02-28T23:52:47.232Z,9.67
2019-02-28T23:55:21.968Z,10.67
2019-02-28T23:57:50.663Z,10.57
